Main page
METAR-TAF:

METAR-TAF

Airports :

Kuwait International Airport

Kuwait City, Kuwait

latitude: 29-13N, longitude: 047-59E, elevation: 55 m

Current weather observation

The report was made 1 hour and 9 minutes ago, at 16:00 UTC
Wind 11 kt from the North
Temperature 30°C
Humidity 24%
Pressure 1016 hPa
Visibility 10 km or more
no clouds below 1500 m and no cumulonimbus

METAR: OKBK 211600Z 36011KT CAVOK 30/07 Q1016 NOSIG

Time: 20:09 (17:09 UTC)

Forecast

The report was made 6 hours and 24 minutes ago, at 10:45 UTC
Forecast valid from 21 at 12 UTC to 22 at 18 UTC
Wind 10 kt from the North with gusts up to 20 kt
Visibility: 7000 m

TAF: OKBK 211045Z 2112/2218 35010G20KT 7000 NSC

Weather observations and forecasts of more than 4000 airports (METAR and TAF reports).

The available stations are represented by yellow and red dots on the map.

Hover mouse over dot to see the name of the station.

Then click to see weather observations and forecasts.

To change the map : click on the green buttons with a black cross to zoom in, on the green button with a dash to zoom out, or on the green arrows for adjacent maps.


METAR-TAF: